createdAt,value
2022-09-01T00:00:06.524Z,1.40
2022-09-01T00:02:37.542Z,1.77
2022-09-01T00:05:09.748Z,1.65
2022-09-01T00:07:37.358Z,1.58
2022-09-01T00:10:09.997Z,1.20
2022-09-01T00:12:38.674Z,1.60
2022-09-01T00:15:10.203Z,1.50
2022-09-01T00:17:38.831Z,1.13
2022-09-01T00:20:10.445Z,2.03
2022-09-01T00:22:38.052Z,1.40
2022-09-01T00:25:08.759Z,1.60
2022-09-01T00:27:37.243Z,1.50
2022-09-01T00:30:04.859Z,1.50
2022-09-01T00:32:32.452Z,1.40
2022-09-01T00:35:02.058Z,1.48
2022-09-01T00:37:30.670Z,1.42
2022-09-01T00:39:58.281Z,1.50
2022-09-01T00:42:27.886Z,1.50
2022-09-01T00:44:55.591Z,1.77
2022-09-01T00:47:24.058Z,1.10
2022-09-01T00:49:53.675Z,1.88
2022-09-01T00:52:33.312Z,1.20
2022-09-01T00:55:24.016Z,1.30
2022-09-01T00:57:51.678Z,1.55
2022-09-01T01:00:24.273Z,1.60
2022-09-01T01:02:57.025Z,1.50
2022-09-01T01:05:30.534Z,1.60
2022-09-01T01:07:58.088Z,1.73
2022-09-01T01:10:27.704Z,1.55
2022-09-01T01:12:55.369Z,1.60
2022-09-01T01:15:22.944Z,1.60
2022-09-01T01:17:51.096Z,1.50
2022-09-01T01:20:41.276Z,1.80
2022-09-01T01:23:25.894Z,1.40
2022-09-01T01:26:00.504Z,1.42
2022-09-01T01:28:37.152Z,1.40
2022-09-01T01:31:13.853Z,1.42
2022-09-01T01:33:48.406Z,1.80
2022-09-01T01:36:32.075Z,1.48
2022-09-01T01:39:13.774Z,1.13
2022-09-01T01:41:46.370Z,1.45
2022-09-01T01:44:17.993Z,1.48
2022-09-01T01:46:49.622Z,1.88
2022-09-01T01:49:23.814Z,1.60
2022-09-01T01:51:56.880Z,1.77
2022-09-01T01:54:32.611Z,1.58
2022-09-01T01:57:02.104Z,1.75
2022-09-01T01:59:30.728Z,2.00
2022-09-01T02:01:59.349Z,2.15
2022-09-01T02:04:28.917Z,1.83
2022-09-01T02:06:58.522Z,1.92
2022-09-01T02:09:27.113Z,1.70
2022-09-01T02:11:57.722Z,1.63
2022-09-01T02:14:26.342Z,1.90
2022-09-01T02:16:56.984Z,2.00
2022-09-01T02:19:24.529Z,1.83
2022-09-01T02:21:57.145Z,1.80
2022-09-01T02:24:25.752Z,1.65
2022-09-01T02:26:54.341Z,1.50
2022-09-01T02:29:24.959Z,1.60
2022-09-01T02:31:54.563Z,1.58
2022-09-01T02:34:25.168Z,1.70
2022-09-01T02:36:56.794Z,1.52
2022-09-01T02:39:30.390Z,2.00
2022-09-01T02:41:58.987Z,1.55
2022-09-01T02:44:30.612Z,1.45
2022-09-01T02:46:59.223Z,1.80
2022-09-01T02:49:30.002Z,1.40
2022-09-01T02:52:02.001Z,1.83
2022-09-01T02:54:34.100Z,1.30
2022-09-01T02:57:04.690Z,1.63
2022-09-01T02:59:32.873Z,1.55
2022-09-01T03:02:01.898Z,1.70
2022-09-01T03:04:36.606Z,1.75
2022-09-01T03:07:06.994Z,2.00
2022-09-01T03:09:35.755Z,2.25
2022-09-01T03:12:08.867Z,1.85
2022-09-01T03:14:37.003Z,2.28
2022-09-01T03:17:05.620Z,1.90
2022-09-01T03:19:42.222Z,1.90
2022-09-01T03:22:10.824Z,1.52
2022-09-01T03:24:41.425Z,2.00
2022-09-01T03:27:12.058Z,2.05
2022-09-01T03:29:41.655Z,2.40
2022-09-01T03:32:11.135Z,1.40
2022-09-01T03:34:39.508Z,1.92
2022-09-01T03:37:12.502Z,2.72
2022-09-01T03:39:41.062Z,2.10
2022-09-01T03:42:11.531Z,2.00
2022-09-01T03:44:42.343Z,2.53
2022-09-01T03:47:15.945Z,1.85
2022-09-01T03:49:45.561Z,2.25
2022-09-01T03:52:14.152Z,2.55
2022-09-01T03:54:42.737Z,1.85
2022-09-01T03:57:13.935Z,1.67
2022-09-01T03:59:43.969Z,1.52
2022-09-01T04:02:15.668Z,1.95
2022-09-01T04:04:44.233Z,1.80
2022-09-01T04:07:15.497Z,2.17
2022-09-01T04:09:49.437Z,2.60
2022-09-01T04:12:18.043Z,1.70
2022-09-01T04:14:51.689Z,2.20
2022-09-01T04:17:39.332Z,1.92
2022-09-01T04:20:10.970Z,2.05
2022-09-01T04:22:39.042Z,2.13
2022-09-01T04:25:07.150Z,2.03
2022-09-01T04:27:37.643Z,2.10
2022-09-01T04:30:04.981Z,1.80
2022-09-01T04:32:36.986Z,2.42
2022-09-01T04:35:06.601Z,2.13
2022-09-01T04:37:37.220Z,1.98
2022-09-01T04:40:05.883Z,1.60
2022-09-01T04:42:34.407Z,1.90
2022-09-01T04:45:09.997Z,2.45
2022-09-01T04:47:42.628Z,1.50
2022-09-01T04:50:18.273Z,2.33
2022-09-01T04:53:07.960Z,1.85
2022-09-01T04:55:45.633Z,2.10
2022-09-01T05:00:50.904Z,2.20
2022-09-01T05:06:02.119Z,2.00
2022-09-01T05:08:32.592Z,2.20
2022-09-01T05:11:08.828Z,1.60
2022-09-01T05:13:46.125Z,2.08
2022-09-01T05:16:21.508Z,1.92
2022-09-01T05:18:58.308Z,2.30
2022-09-01T05:21:30.893Z,1.73
2022-09-01T05:24:04.522Z,2.30
2022-09-01T05:26:35.955Z,2.28
2022-09-01T05:29:10.936Z,2.00
2022-09-01T05:31:41.499Z,1.75
2022-09-01T05:34:11.011Z,2.22
2022-09-01T05:36:46.659Z,2.25
2022-09-01T05:39:15.258Z,1.85
2022-09-01T05:41:44.851Z,2.03
2022-09-01T05:44:15.349Z,1.70
2022-09-01T05:46:45.152Z,2.28
2022-09-01T05:49:14.663Z,2.40
2022-09-01T05:51:45.774Z,2.63
2022-09-01T05:54:15.160Z,2.05
2022-09-01T05:56:46.508Z,2.25
2022-09-01T05:59:24.338Z,2.30
2022-09-01T06:01:55.940Z,2.33
2022-09-01T06:04:28.350Z,1.80
2022-09-01T06:07:14.611Z,2.00
2022-09-01T06:09:55.714Z,2.35
2022-09-01T06:12:27.283Z,2.55
2022-09-01T06:14:55.872Z,2.35
2022-09-01T06:17:28.338Z,2.38
2022-09-01T06:19:59.174Z,2.30
2022-09-01T06:22:29.743Z,2.20
2022-09-01T06:25:02.717Z,2.78
2022-09-01T06:27:44.272Z,2.40
2022-09-01T06:30:23.472Z,2.38
2022-09-01T06:32:59.290Z,2.60
2022-09-01T06:35:29.708Z,3.00
2022-09-01T06:38:03.522Z,2.22
2022-09-01T06:40:43.383Z,2.70
2022-09-01T06:43:15.421Z,2.15
2022-09-01T06:45:55.467Z,1.80
2022-09-01T06:48:25.192Z,2.47
2022-09-01T06:51:21.995Z,2.00
2022-09-01T06:53:59.475Z,2.40
2022-09-01T06:56:36.826Z,1.90
2022-09-01T06:59:18.709Z,1.80
2022-09-01T07:14:20.367Z,2.10
2022-09-01T07:16:52.512Z,1.92
2022-09-01T07:19:22.561Z,2.03
2022-09-01T07:42:30.582Z,1.80
2022-09-01T07:42:32.154Z,2.03
2022-09-01T08:46:40.349Z,1.08
2022-09-01T08:49:30.272Z,1.17
2022-09-01T08:52:25.632Z,0.90
2022-09-01T08:55:01.006Z,1.25
2022-09-01T08:57:35.630Z,0.80
2022-09-01T09:00:26.406Z,1.10
2022-09-01T09:03:42.323Z,1.35
2022-09-01T09:06:38.018Z,0.95
2022-09-01T09:09:11.569Z,1.00
2022-09-01T09:12:12.337Z,1.00
2022-09-01T09:15:19.021Z,1.00
2022-09-01T09:17:59.979Z,1.38
2022-09-01T09:20:30.402Z,1.30
2022-09-01T09:23:02.157Z,1.10
2022-09-01T09:25:42.556Z,1.40
2022-09-01T09:28:11.416Z,1.58
2022-09-01T16:33:24.496Z,0.50
2022-09-01T16:36:13.355Z,0.60
2022-09-01T16:38:58.787Z,0.40
2022-09-01T16:42:01.259Z,0.38
2022-09-01T16:45:13.730Z,0.65
2022-09-01T16:47:56.965Z,0.52
2022-09-01T16:50:58.723Z,0.50
2022-09-01T16:53:45.439Z,0.50
2022-09-01T16:56:26.082Z,0.60
2022-09-01T16:59:05.718Z,0.50
2022-09-01T17:01:56.464Z,0.65
2022-09-01T17:04:39.113Z,0.55
2022-09-01T17:07:31.557Z,0.70
2022-09-01T17:10:29.500Z,1.10
2022-09-01T17:12:58.095Z,0.60
2022-09-01T17:15:40.900Z,0.65
2022-09-01T17:18:23.226Z,0.60
2022-09-01T17:21:00.099Z,0.60
2022-09-01T17:23:31.446Z,0.40
2022-09-01T17:26:17.425Z,0.63
2022-09-01T17:29:13.163Z,0.60
2022-09-01T17:32:14.926Z,0.60
